Time;durP1;ratioP1;P1;durP2;ratioP2;P2;SDS_P1;SDS_P2;PMS_P1;PMS_P2;Temp;Humidity;BMP_temperature;BMP_pressure;BME280_temperature;BME280_humidity;BME280_pressure;Samples;Min_cycle;Max_cycle;Signal;HPM_P1;HPM_P2
2022/06/05 00:01:02;;;;;;;26.15;16.40;;;;;;;;;;4995254;28;20051;-55
2022/06/05 00:03:38;;;;;;;26.00;18.13;;;;;;;;;;4995440;28;20042;-51
2022/06/05 00:06:12;;;;;;;27.33;16.80;;;;;;;;;;4995687;28;20046;-56
2022/06/05 00:08:56;;;;;;;26.23;16.33;;;;;;;;;;4995609;28;20078;-54
2022/06/05 00:11:24;;;;;;;29.25;18.40;;;;;;;;;;4995148;28;20096;-56
2022/06/05 00:13:52;;;;;;;30.25;17.52;;;;;;;;;;4995255;28;20054;-52
2022/06/05 00:16:24;;;;;;;27.90;17.42;;;;;;;;;;4996195;28;20060;-51
2022/06/05 00:18:52;;;;;;;28.92;17.33;;;;;;;;;;4996110;28;20050;-50
2022/06/05 00:21:19;;;;;;;24.55;17.42;;;;;;;;;;4995379;28;20385;-51
2022/06/05 00:23:46;;;;;;;33.78;17.13;;;;;;;;;;4994910;28;20046;-52
2022/06/05 00:26:26;;;;;;;24.05;16.65;;;;;;;;;;4995216;28;20053;-51
2022/06/05 00:29:01;;;;;;;29.50;17.00;;;;;;;;;;4995181;28;20093;-53
2022/06/05 00:31:40;;;;;;;28.88;17.35;;;;;;;;;;4995091;28;20089;-52
2022/06/05 00:34:07;;;;;;;25.42;16.17;;;;;;;;;;4994892;28;20058;-54
2022/06/05 00:36:58;;;;;;;26.23;15.65;;;;;;;;;;4995109;28;20047;-55
2022/06/05 00:39:31;;;;;;;24.25;15.80;;;;;;;;;;4995029;28;20054;-51
2022/06/05 00:42:00;;;;;;;25.75;17.25;;;;;;;;;;4994753;28;20104;-55
2022/06/05 00:44:32;;;;;;;29.10;17.58;;;;;;;;;;4994964;28;20054;-52
2022/06/05 00:47:01;;;;;;;46.35;23.98;;;;;;;;;;4995269;28;20108;-56
2022/06/05 00:49:34;;;;;;;26.63;17.05;;;;;;;;;;4994670;28;20471;-53
2022/06/05 00:52:02;;;;;;;27.75;16.77;;;;;;;;;;4994461;28;20534;-54
2022/06/05 00:54:29;;;;;;;24.35;16.23;;;;;;;;;;4994582;28;20047;-53
2022/06/05 00:56:56;;;;;;;25.75;17.15;;;;;;;;;;4994840;28;20042;-53
2022/06/05 00:59:23;;;;;;;26.15;16.00;;;;;;;;;;4981799;28;20053;-52
2022/06/05 01:01:50;;;;;;;25.15;16.38;;;;;;;;;;4974858;28;20050;-52
2022/06/05 01:04:20;;;;;;;24.25;15.90;;;;;;;;;;4974988;28;20463;-56
2022/06/05 01:06:47;;;;;;;25.50;16.35;;;;;;;;;;4975238;28;20388;-56
2022/06/05 01:09:14;;;;;;;25.20;16.88;;;;;;;;;;4974761;28;20109;-53
2022/06/05 01:11:53;;;;;;;26.40;16.85;;;;;;;;;;4974533;28;20047;-54
2022/06/05 01:14:31;;;;;;;27.52;17.63;;;;;;;;;;4974629;28;20488;-54
2022/06/05 01:17:03;;;;;;;25.38;16.08;;;;;;;;;;4975100;28;20051;-55
2022/06/05 01:19:42;;;;;;;25.88;17.27;;;;;;;;;;4974608;28;20047;-53
2022/06/05 01:22:34;;;;;;;24.50;16.95;;;;;;;;;;4974700;28;20061;-51
2022/06/05 01:25:17;;;;;;;25.55;16.85;;;;;;;;;;4974742;28;20058;-54
2022/06/05 01:27:54;;;;;;;25.85;16.90;;;;;;;;;;4974762;28;20046;-50
2022/06/05 01:30:23;;;;;;;23.90;17.25;;;;;;;;;;4974804;28;20050;-50
2022/06/05 01:32:55;;;;;;;26.23;16.75;;;;;;;;;;4974845;28;20055;-56
2022/06/05 01:35:26;;;;;;;26.70;17.42;;;;;;;;;;4974079;28;20047;-54
2022/06/05 01:37:59;;;;;;;24.08;16.00;;;;;;;;;;4975252;28;20051;-56
2022/06/05 01:40:30;;;;;;;27.52;16.33;;;;;;;;;;4974275;28;20113;-54
2022/06/05 01:43:03;;;;;;;26.08;16.70;;;;;;;;;;4974289;28;20074;-55
2022/06/05 01:45:35;;;;;;;25.05;16.30;;;;;;;;;;4974501;28;20054;-56
2022/06/05 01:48:06;;;;;;;26.88;16.25;;;;;;;;;;4974339;28;20101;-56
2022/06/05 01:50:40;;;;;;;27.08;16.65;;;;;;;;;;4974283;28;20057;-56
2022/06/05 01:53:11;;;;;;;26.75;16.38;;;;;;;;;;4974311;28;20058;-52
2022/06/05 01:55:42;;;;;;;24.05;16.08;;;;;;;;;;4974295;28;20093;-52
2022/06/05 01:58:14;;;;;;;27.60;17.65;;;;;;;;;;4977105;28;20500;-51
2022/06/05 02:00:41;;;;;;;39.80;21.63;;;;;;;;;;4993500;28;20431;-54
2022/06/05 02:03:12;;;;;;;28.85;17.23;;;;;;;;;;4993715;28;20053;-53
2022/06/05 02:05:44;;;;;;;25.77;16.60;;;;;;;;;;4993721;28;20050;-53
2022/06/05 02:08:16;;;;;;;29.88;17.73;;;;;;;;;;4993974;28;20054;-54
2022/06/05 02:10:49;;;;;;;25.33;15.85;;;;;;;;;;4993234;28;20046;-51
2022/06/05 02:13:18;;;;;;;24.25;16.42;;;;;;;;;;4993498;28;20136;-51
2022/06/05 02:15:47;;;;;;;26.83;16.85;;;;;;;;;;4993124;28;20096;-52
2022/06/05 02:18:15;;;;;;;22.90;15.77;;;;;;;;;;4993217;28;20160;-56
2022/06/05 02:20:43;;;;;;;24.75;15.73;;;;;;;;;;4992503;28;20050;-51
2022/06/05 02:23:15;;;;;;;25.20;15.75;;;;;;;;;;4993095;28;20046;-54
2022/06/05 02:25:42;;;;;;;25.73;15.52;;;;;;;;;;4992985;28;20054;-57
2022/06/05 02:28:13;;;;;;;25.35;15.75;;;;;;;;;;4992783;28;20076;-55
2022/06/05 02:30:49;;;;;;;25.40;15.80;;;;;;;;;;4992600;28;20109;-57
2022/06/05 02:33:24;;;;;;;25.00;16.10;;;;;;;;;;4993001;28;20051;-56
2022/06/05 02:35:59;;;;;;;24.80;15.43;;;;;;;;;;4992986;28;20093;-55
2022/06/05 02:38:37;;;;;;;22.00;15.35;;;;;;;;;;4992783;28;20046;-54
2022/06/05 02:41:10;;;;;;;24.13;15.45;;;;;;;;;;4992258;28;20061;-56
2022/06/05 02:43:44;;;;;;;24.33;15.15;;;;;;;;;;4992956;28;20492;-55
2022/06/05 02:46:22;;;;;;;25.55;15.85;;;;;;;;;;4992202;28;20077;-52
2022/06/05 02:48:58;;;;;;;24.45;15.48;;;;;;;;;;4992233;28;20050;-55
2022/06/05 02:51:31;;;;;;;24.00;14.98;;;;;;;;;;4992291;28;20054;-55
2022/06/05 02:53:59;;;;;;;26.38;16.75;;;;;;;;;;4992589;28;20054;-54
2022/06/05 02:56:28;;;;;;;25.58;15.57;;;;;;;;;;4992432;28;20058;-58
2022/06/05 02:58:58;;;;;;;27.05;15.07;;;;;;;;;;4983535;28;20780;-56
2022/06/05 03:04:12;;;;;;;25.23;16.00;;;;;;;;;;4972997;28;20420;-55
2022/06/05 03:06:40;;;;;;;25.33;15.93;;;;;;;;;;4973058;28;20110;-57
2022/06/05 03:09:09;;;;;;;25.65;15.55;;;;;;;;;;4973436;28;20093;-55
2022/06/05 03:11:35;;;;;;;23.08;15.38;;;;;;;;;;4973062;28;20102;-55
2022/06/05 03:14:03;;;;;;;28.65;16.23;;;;;;;;;;4973179;28;20051;-56
2022/06/05 03:16:31;;;;;;;21.77;15.15;;;;;;;;;;4973046;28;20043;-53
2022/06/05 03:18:58;;;;;;;23.88;14.77;;;;;;;;;;4973097;28;20102;-56
2022/06/05 03:21:24;;;;;;;27.27;15.85;;;;;;;;;;4972557;28;20567;-56
2022/06/05 03:23:51;;;;;;;27.13;16.17;;;;;;;;;;4973216;28;20385;-56
2022/06/05 03:26:18;;;;;;;21.70;14.65;;;;;;;;;;4972835;28;20117;-51
2022/06/05 03:28:45;;;;;;;27.75;15.05;;;;;;;;;;4972908;28;20047;-54
2022/06/05 03:31:11;;;;;;;27.63;15.68;;;;;;;;;;4972504;28;20046;-56
2022/06/05 03:33:40;;;;;;;24.42;15.25;;;;;;;;;;4972828;28;20054;-56
2022/06/05 03:36:10;;;;;;;25.65;16.88;;;;;;;;;;4972764;28;20101;-56
2022/06/05 03:38:36;;;;;;;;;;;;;;;;;;4973520;28;20306;-52
2022/06/05 03:41:04;;;;;;;24.40;15.30;;;;;;;;;;4972696;28;19934;-50
2022/06/05 03:43:32;;;;;;;27.15;16.80;;;;;;;;;;4972929;28;20145;-51
2022/06/05 03:46:02;;;;;;;27.30;15.98;;;;;;;;;;4972777;28;20109;-52
2022/06/05 03:48:29;;;;;;;29.63;16.85;;;;;;;;;;4972775;28;20348;-55
2022/06/05 03:50:58;;;;;;;27.00;16.77;;;;;;;;;;4972345;28;20051;-56
2022/06/05 03:53:25;;;;;;;31.25;19.73;;;;;;;;;;4972933;28;20566;-54
2022/06/05 03:55:52;;;;;;;32.63;19.60;;;;;;;;;;4972561;28;20047;-54
2022/06/05 03:58:18;;;;;;;32.00;18.27;;;;;;;;;;4977547;28;20038;-54
2022/06/05 04:00:45;;;;;;;31.33;17.70;;;;;;;;;;4995564;28;20055;-54
2022/06/05 04:03:12;;;;;;;31.92;17.38;;;;;;;;;;4995999;28;20518;-56
2022/06/05 04:05:39;;;;;;;26.27;17.13;;;;;;;;;;4996076;28;20046;-56
2022/06/05 04:08:08;;;;;;;26.63;15.80;;;;;;;;;;4995646;28;20054;-54
2022/06/05 04:10:34;;;;;;;24.15;14.52;;;;;;;;;;4995291;28;20050;-53
2022/06/05 04:13:01;;;;;;;25.08;14.98;;;;;;;;;;4995484;28;20105;-52
2022/06/05 04:15:28;;;;;;;23.67;14.77;;;;;;;;;;4995537;28;20046;-52
2022/06/05 04:17:55;;;;;;;22.45;14.52;;;;;;;;;;4995665;28;20412;-51
2022/06/05 04:20:22;;;;;;;23.60;14.00;;;;;;;;;;4995630;28;20128;-52
2022/06/05 04:22:48;;;;;;;22.83;14.10;;;;;;;;;;4995552;28;20073;-54
2022/06/05 04:25:18;;;;;;;22.90;15.07;;;;;;;;;;4995546;28;20050;-56
2022/06/05 04:27:45;;;;;;;20.50;14.53;;;;;;;;;;4996172;28;20086;-54
2022/06/05 04:30:12;;;;;;;25.95;14.35;;;;;;;;;;4995815;28;20054;-56
2022/06/05 04:32:39;;;;;;;19.80;14.68;;;;;;;;;;4994972;28;20093;-51
2022/06/05 04:35:07;;;;;;;22.45;13.90;;;;;;;;;;4995334;28;20131;-56
2022/06/05 04:37:34;;;;;;;22.33;13.95;;;;;;;;;;4995159;28;20058;-52
2022/06/05 04:40:01;;;;;;;22.73;13.70;;;;;;;;;;4994954;28;20491;-52
2022/06/05 04:42:30;;;;;;;20.05;13.52;;;;;;;;;;4994586;28;20125;-54
2022/06/05 04:44:57;;;;;;;21.33;12.33;;;;;;;;;;4995150;28;20058;-55
2022/06/05 04:47:24;;;;;;;19.75;13.38;;;;;;;;;;4995244;28;20109;-54
2022/06/05 04:49:50;;;;;;;22.15;12.25;;;;;;;;;;4995143;28;20463;-55
2022/06/05 04:52:17;;;;;;;21.80;12.18;;;;;;;;;;4994927;28;20046;-55
2022/06/05 04:54:45;;;;;;;27.90;12.68;;;;;;;;;;4994974;28;20462;-57
2022/06/05 04:57:11;;;;;;;18.02;12.15;;;;;;;;;;4995234;28;20368;-56
2022/06/05 04:59:40;;;;;;;20.35;12.57;;;;;;;;;;4980231;28;20500;-53
2022/06/05 05:02:06;;;;;;;17.63;11.63;;;;;;;;;;4975441;28;20046;-53
2022/06/05 05:04:33;;;;;;;19.98;12.70;;;;;;;;;;4989998;22;20030;-61
2022/06/05 05:07:00;;;;;;;18.95;11.95;;;;;;;;;;5012303;28;20050;-57
2022/06/05 05:09:27;;;;;;;20.48;12.18;;;;;;;;;;4993915;28;20100;-57
2022/06/05 05:11:54;;;;;;;18.67;11.50;;;;;;;;;;4993918;28;20049;-56
2022/06/05 05:14:20;;;;;;;22.20;12.27;;;;;;;;;;4994561;28;20054;-57
2022/06/05 05:16:49;;;;;;;18.60;12.18;;;;;;;;;;4994377;28;20068;-53
2022/06/05 05:19:15;;;;;;;18.33;11.20;;;;;;;;;;4994731;28;20380;-57
2022/06/05 05:21:42;;;;;;;22.02;11.90;;;;;;;;;;4994064;28;20392;-52
2022/06/05 05:24:09;;;;;;;18.38;11.13;;;;;;;;;;4993790;28;20054;-59
2022/06/05 05:26:37;;;;;;;16.80;11.43;;;;;;;;;;5010236;28;20515;-57
2022/06/05 05:29:05;;;;;;;21.42;11.80;;;;;;;;;;5002924;28;20050;-58
2022/06/05 05:31:33;;;;;;;19.98;11.88;;;;;;;;;;5013494;28;20054;-58
2022/06/05 05:34:02;;;;;;;20.17;11.55;;;;;;;;;;5013522;28;20096;-58
2022/06/05 05:36:30;;;;;;;18.77;11.50;;;;;;;;;;5013633;28;20054;-58
2022/06/05 05:44:28;;;;;;;18.98;11.27;;;;;;;;;;5013549;28;20184;-58
2022/06/05 05:46:55;;;;;;;20.05;11.50;;;;;;;;;;5013241;28;20081;-56
2022/06/05 05:49:23;;;;;;;19.10;11.77;;;;;;;;;;5013311;28;20554;-60
2022/06/05 05:51:50;;;;;;;17.30;12.10;;;;;;;;;;5013126;28;20050;-60
2022/06/05 05:54:17;;;;;;;17.10;11.98;;;;;;;;;;5013167;28;20483;-58
2022/06/05 05:56:44;;;;;;;19.85;11.70;;;;;;;;;;5013099;28;20050;-60
2022/06/05 05:59:11;;;;;;;16.73;11.82;;;;;;;;;;5013038;28;20410;-58
2022/06/05 06:01:38;;;;;;;18.65;12.18;;;;;;;;;;5012957;28;20058;-57
2022/06/05 06:04:06;;;;;;;19.85;11.93;;;;;;;;;;5013345;28;20057;-57
2022/06/05 06:06:36;;;;;;;17.05;11.85;;;;;;;;;;5013026;28;20053;-57
2022/06/05 06:09:03;;;;;;;17.02;11.05;;;;;;;;;;5013248;28;20050;-54
2022/06/05 06:11:30;;;;;;;23.83;12.90;;;;;;;;;;5012941;28;20065;-58
2022/06/05 06:13:57;;;;;;;18.00;11.05;;;;;;;;;;5013107;28;20053;-60
2022/06/05 06:16:26;;;;;;;19.42;11.25;;;;;;;;;;5012868;28;20537;-61
2022/06/05 06:18:53;;;;;;;17.90;11.73;;;;;;;;;;5013208;28;20392;-56
2022/06/05 06:21:20;;;;;;;21.10;11.90;;;;;;;;;;5012426;28;20108;-59
2022/06/05 06:23:49;;;;;;;18.15;11.93;;;;;;;;;;5012828;28;20550;-57
2022/06/05 06:26:16;;;;;;;17.58;11.15;;;;;;;;;;5012471;28;20061;-59
2022/06/05 06:28:43;;;;;;;22.40;12.38;;;;;;;;;;5012768;28;20617;-59
2022/06/05 06:31:12;;;;;;;17.10;11.85;;;;;;;;;;5012590;28;20057;-61
2022/06/05 06:33:39;;;;;;;20.50;12.35;;;;;;;;;;5012717;28;20054;-59
2022/06/05 06:36:08;;;;;;;19.08;12.65;;;;;;;;;;5012693;28;20526;-59
2022/06/05 06:38:35;;;;;;;16.83;11.52;;;;;;;;;;5012431;28;20057;-59
2022/06/05 06:41:06;;;;;;;24.13;13.60;;;;;;;;;;5012410;28;20593;-61
2022/06/05 06:43:33;;;;;;;16.90;11.05;;;;;;;;;;5012654;28;20474;-57
2022/06/05 06:46:01;;;;;;;17.35;11.52;;;;;;;;;;5012395;28;20058;-58
2022/06/05 06:48:28;;;;;;;16.73;12.65;;;;;;;;;;5012510;28;20126;-60
2022/06/05 06:50:55;;;;;;;23.35;12.00;;;;;;;;;;5012452;28;20557;-58
2022/06/05 06:53:23;;;;;;;17.92;11.52;;;;;;;;;;5012519;28;20137;-58
2022/06/05 06:55:50;;;;;;;20.40;12.02;;;;;;;;;;5012319;28;20049;-59
2022/06/05 06:58:19;;;;;;;16.52;11.60;;;;;;;;;;5012304;28;20461;-59
2022/06/05 07:00:46;;;;;;;15.73;10.70;;;;;;;;;;5012050;28;20072;-55
2022/06/05 07:03:13;;;;;;;17.48;11.93;;;;;;;;;;5012384;28;20085;-59
2022/06/05 07:05:40;;;;;;;19.63;12.15;;;;;;;;;;5012162;28;20461;-61
2022/06/05 07:08:09;;;;;;;17.30;11.45;;;;;;;;;;5012194;28;20062;-60
2022/06/05 07:10:36;;;;;;;20.30;12.25;;;;;;;;;;5012141;28;20104;-58
2022/06/05 07:13:04;;;;;;;18.23;12.55;;;;;;;;;;5012121;28;20046;-61
2022/06/05 07:15:35;;;;;;;20.30;13.15;;;;;;;;;;5012259;28;20050;-59
2022/06/05 07:18:02;;;;;;;15.40;11.95;;;;;;;;;;5012167;28;20499;-60
2022/06/05 07:20:32;;;;;;;16.40;11.73;;;;;;;;;;5012087;28;20077;-61
2022/06/05 07:22:59;;;;;;;19.50;12.55;;;;;;;;;;5012008;28;20120;-61
2022/06/05 07:25:25;;;;;;;17.45;11.85;;;;;;;;;;5011974;28;20057;-61
2022/06/05 07:27:52;;;;;;;18.08;13.07;;;;;;;;;;5011917;28;20046;-61
2022/06/05 07:30:19;;;;;;;18.63;12.13;;;;;;;;;;5012159;28;20101;-56
2022/06/05 07:32:48;;;;;;;20.02;12.27;;;;;;;;;;5011644;28;20109;-62
2022/06/05 07:35:15;;;;;;;17.83;12.82;;;;;;;;;;5016009;28;20421;-59
2022/06/05 07:37:42;;;;;;;19.23;12.50;;;;;;;;;;5015642;28;20052;-60
2022/06/05 07:40:11;;;;;;;20.08;12.93;;;;;;;;;;5015772;28;20050;-58
2022/06/05 07:42:38;;;;;;;19.73;13.43;;;;;;;;;;5015495;28;20061;-56
2022/06/05 07:45:06;;;;;;;18.30;12.82;;;;;;;;;;5015616;28;20046;-58
2022/06/05 07:47:33;;;;;;;23.95;14.15;;;;;;;;;;5015664;28;20108;-58
2022/06/05 07:50:02;;;;;;;19.48;13.70;;;;;;;;;;5015711;28;20046;-60
2022/06/05 07:55:13;;;;;;;20.73;13.32;;;;;;;;;;5015715;28;20143;-59
2022/06/05 07:57:41;;;;;;;21.88;14.73;;;;;;;;;;5015161;28;20509;-55
2022/06/05 08:00:11;;;;;;;21.92;14.60;;;;;;;;;;4996832;28;20423;-66
2022/06/05 08:02:39;;;;;;;23.58;14.05;;;;;;;;;;4995663;28;20054;-59
2022/06/05 08:05:09;;;;;;;20.63;13.25;;;;;;;;;;4995616;28;20396;-59
2022/06/05 08:07:36;;;;;;;23.65;16.15;;;;;;;;;;4996597;28;20140;-62
2022/06/05 08:10:05;;;;;;;20.88;14.90;;;;;;;;;;4997969;28;20050;-59
2022/06/05 08:12:34;;;;;;;19.83;14.57;;;;;;;;;;4997817;28;20524;-58
2022/06/05 08:15:03;;;;;;;22.60;14.97;;;;;;;;;;4998761;28;20108;-57
2022/06/05 08:17:32;;;;;;;25.50;17.63;;;;;;;;;;4998486;28;20456;-57
2022/06/05 08:20:00;;;;;;;24.13;17.00;;;;;;;;;;4997617;28;20498;-61
2022/06/05 08:22:28;;;;;;;24.90;16.65;;;;;;;;;;4997152;28;20565;-59
2022/06/05 08:24:56;;;;;;;27.85;18.75;;;;;;;;;;4997182;28;20050;-57
2022/06/05 08:27:25;;;;;;;25.40;17.83;;;;;;;;;;4996908;28;20054;-59
2022/06/05 08:29:52;;;;;;;24.25;16.58;;;;;;;;;;4996905;28;20046;-56
2022/06/05 08:32:19;;;;;;;20.88;15.43;;;;;;;;;;4997090;28;20053;-56
2022/06/05 08:34:46;;;;;;;25.27;16.17;;;;;;;;;;4997347;28;20057;-59
2022/06/05 08:43:16;;;;;;;24.63;16.67;;;;;;;;;;4995149;28;20054;-61
2022/06/05 08:45:48;;;;;;;31.45;19.20;;;;;;;;;;4995399;28;20046;-60
2022/06/05 08:48:21;;;;;;;22.13;15.75;;;;;;;;;;4994862;28;20490;-59
2022/06/05 08:50:54;;;;;;;24.27;18.08;;;;;;;;;;4994952;28;20054;-59
2022/06/05 08:53:33;;;;;;;23.45;17.40;;;;;;;;;;4994795;28;20557;-59
2022/06/05 08:56:04;;;;;;;24.55;16.25;;;;;;;;;;4994771;28;20056;-61
2022/06/05 08:58:38;;;;;;;25.98;17.58;;;;;;;;;;4999891;28;20068;-59
2022/06/05 09:01:11;;;;;;;20.52;14.60;;;;;;;;;;5013920;28;20050;-61
2022/06/05 09:03:43;;;;;;;22.98;16.80;;;;;;;;;;5014162;28;20054;-59
2022/06/05 09:06:15;;;;;;;24.23;15.50;;;;;;;;;;5013890;28;20137;-60
2022/06/05 09:08:44;;;;;;;21.90;15.52;;;;;;;;;;5013846;28;20054;-61
2022/06/05 09:11:15;;;;;;;22.33;16.10;;;;;;;;;;5013499;28;20495;-61
2022/06/05 09:13:49;;;;;;;21.10;16.35;;;;;;;;;;5014033;28;20046;-59
2022/06/05 09:16:27;;;;;;;23.65;16.00;;;;;;;;;;5014007;28;20049;-58
2022/06/05 09:18:54;;;;;;;22.10;16.33;;;;;;;;;;5012861;28;20053;-59
2022/06/05 09:21:25;;;;;;;21.50;16.52;;;;;;;;;;5013332;28;20046;-59
2022/06/05 09:24:04;;;;;;;25.45;19.33;;;;;;;;;;5013581;28;20138;-60
2022/06/05 09:26:42;;;;;;;28.05;18.42;;;;;;;;;;5013965;28;20566;-60
2022/06/05 09:29:22;;;;;;;25.45;18.10;;;;;;;;;;5013163;28;20054;-60
2022/06/05 09:32:02;;;;;;;;;;;;;;;;;;5013905;28;20053;-60
2022/06/05 09:34:34;;;;;;;23.55;17.88;;;;;;;;;;5013441;28;20305;-60
2022/06/05 09:37:05;;;;;;;28.92;19.30;;;;;;;;;;5013289;28;20058;-60
2022/06/05 09:39:38;;;;;;;31.33;20.13;;;;;;;;;;5013002;28;20136;-60
2022/06/05 09:42:30;;;;;;;64.60;31.83;;;;;;;;;;5013810;28;20442;-59
2022/06/05 09:45:15;;;;;;;32.05;21.58;;;;;;;;;;5013250;28;20065;-58
2022/06/05 09:47:49;;;;;;;29.88;21.48;;;;;;;;;;5013318;28;20065;-62
2022/06/05 09:50:23;;;;;;;27.75;19.58;;;;;;;;;;5013122;28;20457;-60
2022/06/05 09:52:53;;;;;;;31.23;22.08;;;;;;;;;;5013070;28;20483;-58
2022/06/05 09:55:21;;;;;;;29.85;21.35;;;;;;;;;;5013038;28;20414;-57
2022/06/05 10:00:49;;;;;;;27.92;19.95;;;;;;;;;;4993094;28;20053;-58
2022/06/05 10:03:21;;;;;;;29.55;21.38;;;;;;;;;;4993448;28;20057;-58
2022/06/05 10:06:11;;;;;;;29.88;20.38;;;;;;;;;;4998457;28;20455;-59
2022/06/05 10:08:43;;;;;;;26.95;20.08;;;;;;;;;;5012972;28;20054;-57
2022/06/05 10:11:24;;;;;;;26.30;19.60;;;;;;;;;;5011983;28;20050;-58
2022/06/05 10:14:08;;;;;;;24.52;19.25;;;;;;;;;;4994302;28;20097;-56
2022/06/05 10:16:44;;;;;;;25.27;19.30;;;;;;;;;;5012319;28;20522;-60
2022/06/05 10:19:28;;;;;;;33.78;23.45;;;;;;;;;;5012242;28;20484;-63
2022/06/05 10:22:03;;;;;;;29.60;23.25;;;;;;;;;;5012415;28;20092;-57
2022/06/05 10:24:44;;;;;;;25.33;20.90;;;;;;;;;;5010987;28;20057;-54
2022/06/05 10:27:15;;;;;;;27.48;20.35;;;;;;;;;;5012377;28;20116;-53
2022/06/05 10:29:48;;;;;;;26.65;20.55;;;;;;;;;;5012659;28;20498;-56
2022/06/05 10:32:21;;;;;;;28.98;21.63;;;;;;;;;;5011664;28;20495;-54
2022/06/05 10:34:55;;;;;;;27.05;20.92;;;;;;;;;;5012639;28;20455;-57
2022/06/05 10:37:26;;;;;;;27.67;21.65;;;;;;;;;;5012061;28;20092;-58
2022/06/05 10:40:05;;;;;;;26.38;21.00;;;;;;;;;;5012435;28;20526;-58
2022/06/05 10:42:39;;;;;;;26.63;21.42;;;;;;;;;;5011786;28;20046;-57
2022/06/05 10:45:18;;;;;;;28.48;20.27;;;;;;;;;;5012409;28;20112;-55
2022/06/05 10:47:59;;;;;;;25.98;20.08;;;;;;;;;;5012073;28;20065;-57
2022/06/05 10:50:31;;;;;;;35.08;23.45;;;;;;;;;;5012072;28;20045;-58
2022/06/05 10:53:08;;;;;;;31.65;22.10;;;;;;;;;;5011126;28;20053;-61
2022/06/05 10:55:49;;;;;;;30.63;22.55;;;;;;;;;;5012151;28;20056;-57
2022/06/05 10:58:21;;;;;;;31.30;21.83;;;;;;;;;;5008140;28;20573;-59
2022/06/05 11:01:03;;;;;;;33.90;24.15;;;;;;;;;;4992157;28;20047;-58
2022/06/05 11:03:40;;;;;;;28.58;21.35;;;;;;;;;;4992106;28;20050;-57
2022/06/05 11:06:24;;;;;;;37.00;24.48;;;;;;;;;;4992719;28;20416;-58
2022/06/05 11:09:00;;;;;;;34.88;24.13;;;;;;;;;;5013582;28;20088;-60
2022/06/05 11:14:23;;;;;;;39.00;28.65;;;;;;;;;;5015664;28;20045;-60
2022/06/05 11:16:55;;;;;;;39.30;28.60;;;;;;;;;;5015868;28;20042;-60
2022/06/05 11:19:32;;;;;;;33.72;24.20;;;;;;;;;;5015871;28;20061;-59
2022/06/05 11:22:02;;;;;;;32.88;23.50;;;;;;;;;;5015411;28;20523;-59
2022/06/05 11:24:31;;;;;;;42.53;25.92;;;;;;;;;;5016124;28;20103;-61
2022/06/05 11:27:08;;;;;;;38.47;24.98;;;;;;;;;;5012839;28;20092;-61
2022/06/05 11:29:44;;;;;;;39.15;25.10;;;;;;;;;;5001506;28;20066;-61
2022/06/05 11:32:46;;;;;;;33.78;24.58;;;;;;;;;;4998515;28;20058;-60
2022/06/05 11:35:24;;;;;;;33.30;23.15;;;;;;;;;;5015629;28;20054;-60
2022/06/05 11:38:00;;;;;;;32.75;24.10;;;;;;;;;;5015906;28;20101;-60
2022/06/05 11:40:46;;;;;;;31.00;24.00;;;;;;;;;;5015393;28;20054;-60
2022/06/05 11:43:34;;;;;;;30.40;23.08;;;;;;;;;;5015595;28;20056;-61
2022/06/05 11:46:12;;;;;;;35.75;25.88;;;;;;;;;;4998488;28;20137;-61
2022/06/05 11:48:46;;;;;;;35.47;25.02;;;;;;;;;;4996081;28;20114;-62
2022/06/05 11:51:21;;;;;;;33.80;24.73;;;;;;;;;;4995644;28;20775;-62
2022/06/05 11:53:58;;;;;;;35.55;24.92;;;;;;;;;;4996286;28;20061;-61
2022/06/05 11:56:39;;;;;;;31.95;23.70;;;;;;;;;;4995873;28;20057;-61
2022/06/05 11:59:16;;;;;;;33.33;24.33;;;;;;;;;;5006874;28;20060;-62
2022/06/05 12:01:47;;;;;;;33.60;23.50;;;;;;;;;;5014603;28;20128;-61
2022/06/05 12:04:22;;;;;;;45.88;30.23;;;;;;;;;;5015490;28;20495;-62
2022/06/05 12:06:52;;;;;;;39.05;30.65;;;;;;;;;;5015181;28;20519;-62
2022/06/05 12:09:21;;;;;;;;;;;;;;;;;;5015736;28;20141;-61
2022/06/05 12:11:58;;;;;;;40.80;29.15;;;;;;;;;;5014726;28;19922;-61
2022/06/05 12:14:29;;;;;;;119.60;96.38;;;;;;;;;;5015716;28;20451;-61
2022/06/05 12:17:07;;;;;;;47.53;33.58;;;;;;;;;;5015159;28;20081;-62
2022/06/05 12:19:46;;;;;;;30.58;23.42;;;;;;;;;;5014500;28;20108;-62
2022/06/05 12:22:21;;;;;;;29.30;23.33;;;;;;;;;;5001130;28;20488;-62
2022/06/05 12:24:56;;;;;;;31.33;24.35;;;;;;;;;;4995150;28;20108;-62
2022/06/05 12:27:23;;;;;;;30.65;23.45;;;;;;;;;;4995519;28;20090;-63
2022/06/05 12:29:55;;;;;;;42.15;27.83;;;;;;;;;;4995398;28;20101;-70
2022/06/05 12:32:28;;;;;;;32.08;24.20;;;;;;;;;;5012128;28;20046;-67
2022/06/05 12:35:02;;;;;;;32.75;23.90;;;;;;;;;;5014507;28;20054;-65
2022/06/05 12:37:36;;;;;;;31.27;23.73;;;;;;;;;;5014250;28;20053;-66
2022/06/05 12:40:05;;;;;;;31.85;24.20;;;;;;;;;;5014696;28;20081;-66
2022/06/05 12:42:40;;;;;;;33.25;23.55;;;;;;;;;;5012243;28;20054;-67
2022/06/05 12:45:17;;;;;;;32.17;23.27;;;;;;;;;;5010583;28;20499;-66
2022/06/05 12:48:04;;;;;;;30.70;22.30;;;;;;;;;;5014048;28;20104;-65
2022/06/05 12:50:41;;;;;;;40.70;23.88;;;;;;;;;;5013063;28;20125;-68
2022/06/05 12:53:15;;;;;;;51.25;30.88;;;;;;;;;;5014167;28;20467;-67
2022/06/05 12:55:47;;;;;;;33.28;24.90;;;;;;;;;;5014431;28;20076;-64
2022/06/05 12:58:20;;;;;;;42.78;29.80;;;;;;;;;;5010314;28;20057;-66
2022/06/05 13:00:53;;;;;;;38.80;26.77;;;;;;;;;;4998561;28;20053;-65
2022/06/05 13:03:26;;;;;;;57.08;32.33;;;;;;;;;;4994908;28;20050;-63
2022/06/05 13:06:02;;;;;;;55.72;34.95;;;;;;;;;;4998750;28;20053;-66
2022/06/05 13:08:35;;;;;;;41.80;26.02;;;;;;;;;;5014075;28;20063;-66
2022/06/05 13:11:09;;;;;;;32.33;23.35;;;;;;;;;;5013478;28;20046;-64
2022/06/05 13:13:44;;;;;;;36.17;25.65;;;;;;;;;;5013390;28;20054;-63
2022/06/05 13:16:19;;;;;;;35.95;25.58;;;;;;;;;;5013780;28;20078;-65
2022/06/05 13:19:07;;;;;;;35.17;25.73;;;;;;;;;;5013472;28;20694;-63
2022/06/05 13:21:41;;;;;;;34.78;26.17;;;;;;;;;;5013029;28;20108;-65
2022/06/05 13:24:17;;;;;;;37.10;26.25;;;;;;;;;;5013884;28;20046;-65
2022/06/05 13:26:52;;;;;;;39.33;28.00;;;;;;;;;;5011846;28;20046;-65
2022/06/05 13:29:36;;;;;;;38.53;26.08;;;;;;;;;;4993830;28;20092;-64
2022/06/05 13:32:09;;;;;;;35.72;23.98;;;;;;;;;;5011834;28;20562;-70
2022/06/05 13:34:41;;;;;;;36.25;25.88;;;;;;;;;;5012911;28;20053;-63
2022/06/05 13:37:16;;;;;;;35.92;26.42;;;;;;;;;;5013252;28;20054;-63
2022/06/05 13:39:49;;;;;;;35.17;25.60;;;;;;;;;;5013089;28;20046;-63
2022/06/05 13:42:18;;;;;;;39.17;28.85;;;;;;;;;;5012822;28;20054;-63
2022/06/05 13:44:52;;;;;;;35.03;25.05;;;;;;;;;;5013096;28;20050;-62
2022/06/05 13:47:38;;;;;;;40.92;27.33;;;;;;;;;;5013400;28;20474;-61
2022/06/05 13:50:27;;;;;;;32.72;24.60;;;;;;;;;;5013576;28;20169;-62
2022/06/05 13:53:10;;;;;;;37.00;25.35;;;;;;;;;;5013095;28;20056;-62
2022/06/05 13:55:44;;;;;;;40.05;28.13;;;;;;;;;;5013543;28;20136;-62
2022/06/05 13:58:18;;;;;;;42.50;28.30;;;;;;;;;;5013028;28;20480;-62
2022/06/05 14:00:53;;;;;;;36.38;26.70;;;;;;;;;;5013059;28;20050;-62
2022/06/05 14:03:35;;;;;;;37.70;26.27;;;;;;;;;;5013108;28;20053;-62
2022/06/05 14:06:05;;;;;;;44.15;30.10;;;;;;;;;;5012929;28;20056;-62
2022/06/05 14:08:49;;;;;;;40.03;28.63;;;;;;;;;;5012740;28;20396;-62
2022/06/05 14:11:21;;;;;;;39.88;27.98;;;;;;;;;;5013084;28;20050;-62
2022/06/05 14:13:50;;;;;;;41.17;27.77;;;;;;;;;;5013081;28;20045;-62
2022/06/05 14:16:18;;;;;;;40.58;27.77;;;;;;;;;;5013155;28;20068;-62
2022/06/05 14:18:48;;;;;;;40.85;28.20;;;;;;;;;;5012764;28;20046;-62
2022/06/05 14:21:19;;;;;;;41.75;27.73;;;;;;;;;;5012977;28;20052;-62
2022/06/05 14:23:48;;;;;;;39.20;27.85;;;;;;;;;;5012911;28;20577;-63
2022/06/05 14:26:17;;;;;;;36.67;26.75;;;;;;;;;;5012804;28;20061;-62
2022/06/05 14:28:46;;;;;;;46.42;31.05;;;;;;;;;;5012777;28;20586;-62
2022/06/05 14:31:16;;;;;;;49.35;31.75;;;;;;;;;;5012403;28;20128;-62
2022/06/05 14:33:46;;;;;;;;;;;;;;;;;;5012987;28;20053;-62
2022/06/05 14:36:19;;;;;;;48.43;32.27;;;;;;;;;;5012724;28;19928;-62
2022/06/05 14:38:53;;;;;;;47.72;31.15;;;;;;;;;;5012423;28;20092;-62
2022/06/05 14:41:23;;;;;;;43.50;30.17;;;;;;;;;;5012171;28;20105;-62
2022/06/05 14:43:56;;;;;;;52.10;32.95;;;;;;;;;;5012226;28;20057;-62
2022/06/05 14:46:34;;;;;;;47.00;30.73;;;;;;;;;;5012476;28;20057;-62
2022/06/05 14:49:09;;;;;;;51.90;32.67;;;;;;;;;;5012323;28;20050;-62
2022/06/05 14:51:45;;;;;;;46.45;31.83;;;;;;;;;;5012379;28;20682;-62
2022/06/05 14:57:51;;;;;;;47.80;32.35;;;;;;;;;;5011875;28;20457;-60
2022/06/05 15:00:16;;;;;;;51.17;33.25;;;;;;;;;;4970660;28;20426;-62
2022/06/05 15:02:48;;;;;;;57.17;34.50;;;;;;;;;;4969946;28;20051;-62
2022/06/05 15:05:21;;;;;;;51.95;33.15;;;;;;;;;;4991274;28;20057;-62
2022/06/05 15:07:53;;;;;;;57.20;35.40;;;;;;;;;;5012455;28;20054;-62
2022/06/05 15:10:32;;;;;;;61.60;36.47;;;;;;;;;;5012079;28;20487;-64